sensor_id;sensor_type;location;lat;lon;timestamp;pressure;altitude;pressure_sealevel;temperature;humidity
22018;BME280;11173;51.050;7.108;2023-05-09T00:01:41;99741.06;;;13.63;74.67
22018;BME280;11173;51.050;7.108;2023-05-09T00:11:42;99732.22;;;13.65;75.91
22018;BME280;11173;51.050;7.108;2023-05-09T00:21:43;99716.56;;;13.84;75.58
22018;BME280;11173;51.050;7.108;2023-05-09T00:31:43;99702.09;;;13.85;73.28
22018;BME280;11173;51.050;7.108;2023-05-09T00:41:43;99683.75;;;13.84;73.77
22018;BME280;11173;51.050;7.108;2023-05-09T00:51:44;99682.44;;;13.72;74.10
22018;BME280;11173;51.050;7.108;2023-05-09T01:01:44;99659.00;;;13.66;74.86
22018;BME280;11173;51.050;7.108;2023-05-09T01:11:51;99644.25;;;13.66;74.06
22018;BME280;11173;51.050;7.108;2023-05-09T01:21:56;99654.25;;;13.80;74.28
22018;BME280;11173;51.050;7.108;2023-05-09T01:31:59;99648.63;;;13.96;73.81
22018;BME280;11173;51.050;7.108;2023-05-09T01:42:01;99636.56;;;14.12;73.69
22018;BME280;11173;51.050;7.108;2023-05-09T01:52:04;99622.78;;;14.18;72.46
22018;BME280;11173;51.050;7.108;2023-05-09T02:02:06;99625.25;;;14.28;74.62
22018;BME280;11173;51.050;7.108;2023-05-09T02:12:06;99638.59;;;14.37;76.00
22018;BME280;11173;51.050;7.108;2023-05-09T02:22:07;99629.28;;;14.40;76.76
22018;BME280;11173;51.050;7.108;2023-05-09T02:32:07;99628.38;;;14.43;76.61
22018;BME280;11173;51.050;7.108;2023-05-09T02:42:09;99616.84;;;14.41;75.51
22018;BME280;11173;51.050;7.108;2023-05-09T02:52:09;99607.75;;;14.37;72.98
22018;BME280;11173;51.050;7.108;2023-05-09T03:02:10;99598.81;;;14.42;75.70
22018;BME280;11173;51.050;7.108;2023-05-09T03:12:10;99588.03;;;14.41;75.20
22018;BME280;11173;51.050;7.108;2023-05-09T03:22:11;99583.34;;;14.38;74.70
22018;BME280;11173;51.050;7.108;2023-05-09T03:32:11;99575.72;;;14.38;76.16
22018;BME280;11173;51.050;7.108;2023-05-09T03:42:11;99584.47;;;14.40;76.53
22018;BME280;11173;51.050;7.108;2023-05-09T03:52:12;99573.13;;;14.44;76.84
22018;BME280;11173;51.050;7.108;2023-05-09T04:02:12;99545.88;;;14.44;76.43
22018;BME280;11173;51.050;7.108;2023-05-09T04:12:12;99544.66;;;14.45;76.13
22018;BME280;11173;51.050;7.108;2023-05-09T04:22:13;99539.28;;;14.38;73.30
22018;BME280;11173;51.050;7.108;2023-05-09T04:32:13;99527.75;;;14.36;73.55
22018;BME280;11173;51.050;7.108;2023-05-09T04:42:13;99523.34;;;14.35;73.13
22018;BME280;11173;51.050;7.108;2023-05-09T04:52:13;99513.41;;;14.34;73.37
22018;BME280;11173;51.050;7.108;2023-05-09T05:02:14;99510.94;;;14.36;73.55
22018;BME280;11173;51.050;7.108;2023-05-09T05:12:14;99499.34;;;14.47;76.81
22018;BME280;11173;51.050;7.108;2023-05-09T05:22:14;99501.34;;;14.59;77.68
22018;BME280;11173;51.050;7.108;2023-05-09T05:32:15;99494.03;;;14.75;78.55
22018;BME280;11173;51.050;7.108;2023-05-09T05:42:15;99483.97;;;14.99;78.97
22018;BME280;11173;51.050;7.108;2023-05-09T05:52:15;99483.59;;;15.32;79.65
22018;BME280;11173;51.050;7.108;2023-05-09T06:02:16;99477.53;;;15.65;77.76
22018;BME280;11173;51.050;7.108;2023-05-09T06:12:16;99459.41;;;16.19;79.20
22018;BME280;11173;51.050;7.108;2023-05-09T06:22:17;99450.75;;;16.91;79.72
22018;BME280;11173;51.050;7.108;2023-05-09T06:32:17;99444.88;;;17.50;79.71
22018;BME280;11173;51.050;7.108;2023-05-09T06:42:18;99440.81;;;17.94;79.34
22018;BME280;11173;51.050;7.108;2023-05-09T06:52:18;99428.56;;;18.30;78.34
22018;BME280;11173;51.050;7.108;2023-05-09T07:02:20;99423.00;;;18.69;79.32
22018;BME280;11173;51.050;7.108;2023-05-09T07:12:20;99416.06;;;19.09;78.68
22018;BME280;11173;51.050;7.108;2023-05-09T07:22:21;99389.88;;;19.53;79.18
22018;BME280;11173;51.050;7.108;2023-05-09T07:32:21;99371.94;;;19.92;76.63
22018;BME280;11173;51.050;7.108;2023-05-09T07:42:21;99363.94;;;20.05;74.40
22018;BME280;11173;51.050;7.108;2023-05-09T07:52:21;99358.00;;;20.23;71.80
22018;BME280;11173;51.050;7.108;2023-05-09T08:02:22;99358.91;;;20.35;72.57
22018;BME280;11173;51.050;7.108;2023-05-09T08:12:22;99349.06;;;20.51;73.04
22018;BME280;11173;51.050;7.108;2023-05-09T08:22:22;99326.88;;;20.70;72.43
22018;BME280;11173;51.050;7.108;2023-05-09T08:32:23;99316.03;;;20.89;70.71
22018;BME280;11173;51.050;7.108;2023-05-09T08:42:24;99299.66;;;20.99;70.78
22018;BME280;11173;51.050;7.108;2023-05-09T08:52:25;99290.69;;;21.06;72.21
22018;BME280;11173;51.050;7.108;2023-05-09T09:02:25;99278.63;;;21.11;72.37
22018;BME280;11173;51.050;7.108;2023-05-09T09:12:25;99269.28;;;21.37;72.74
22018;BME280;11173;51.050;7.108;2023-05-09T09:22:27;99254.78;;;21.61;73.23
22018;BME280;11173;51.050;7.108;2023-05-09T09:32:32;99235.00;;;21.78;68.94
22018;BME280;11173;51.050;7.108;2023-05-09T09:42:39;99237.69;;;21.98;71.00
22018;BME280;11173;51.050;7.108;2023-05-09T10:02:50;99208.16;;;22.67;65.19
22018;BME280;11173;51.050;7.108;2023-05-09T10:12:51;99192.41;;;23.11;66.30
22018;BME280;11173;51.050;7.108;2023-05-09T10:22:54;99185.25;;;23.74;72.24
22018;BME280;11173;51.050;7.108;2023-05-09T10:42:58;99160.50;;;24.77;72.82
22018;BME280;11173;51.050;7.108;2023-05-09T11:03:05;99120.44;;;24.69;63.97
22018;BME280;11173;51.050;7.108;2023-05-09T11:13:06;99106.16;;;24.75;69.42
22018;BME280;11173;51.050;7.108;2023-05-09T11:23:08;99094.88;;;25.13;71.57
22018;BME280;11173;51.050;7.108;2023-05-09T11:33:26;99085.75;;;25.39;66.20
22018;BME280;11173;51.050;7.108;2023-05-09T11:43:27;99070.06;;;25.51;70.66
22018;BME280;11173;51.050;7.108;2023-05-09T11:53:28;99056.94;;;25.62;52.23
22018;BME280;11173;51.050;7.108;2023-05-09T12:03:28;99039.00;;;25.67;66.57
22018;BME280;11173;51.050;7.108;2023-05-09T12:13:28;99024.66;;;25.53;68.64
22018;BME280;11173;51.050;7.108;2023-05-09T12:23:34;99014.63;;;25.66;68.00
22018;BME280;11173;51.050;7.108;2023-05-09T12:33:35;98999.34;;;25.82;69.25
22018;BME280;11173;51.050;7.108;2023-05-09T12:43:37;98988.19;;;25.65;65.73
22018;BME280;11173;51.050;7.108;2023-05-09T12:53:39;98986.34;;;25.68;68.44
22018;BME280;11173;51.050;7.108;2023-05-09T13:03:39;98973.09;;;25.70;65.74
22018;BME280;11173;51.050;7.108;2023-05-09T13:13:40;98949.66;;;25.39;65.01
22018;BME280;11173;51.050;7.108;2023-05-09T13:23:40;98937.84;;;25.16;66.26
22018;BME280;11173;51.050;7.108;2023-05-09T13:33:41;98920.13;;;25.05;66.34
22018;BME280;11173;51.050;7.108;2023-05-09T13:43:41;98907.81;;;24.96;67.98
22018;BME280;11173;51.050;7.108;2023-05-09T13:53:41;98902.66;;;24.95;65.90
22018;BME280;11173;51.050;7.108;2023-05-09T14:03:42;98891.47;;;24.78;65.14
22018;BME280;11173;51.050;7.108;2023-05-09T14:13:42;98873.91;;;24.55;64.42
22018;BME280;11173;51.050;7.108;2023-05-09T14:23:42;98867.88;;;24.39;64.82
22018;BME280;11173;51.050;7.108;2023-05-09T14:33:43;98860.28;;;24.04;64.40
22018;BME280;11173;51.050;7.108;2023-05-09T14:43:43;98855.03;;;23.53;65.30
22018;BME280;11173;51.050;7.108;2023-05-09T14:53:43;98862.50;;;22.32;54.90
22018;BME280;11173;51.050;7.108;2023-05-09T15:03:44;98877.53;;;19.94;60.80
22018;BME280;11173;51.050;7.108;2023-05-09T15:13:44;98878.19;;;18.05;65.13
22018;BME280;11173;51.050;7.108;2023-05-09T15:23:44;98883.53;;;16.94;68.60
22018;BME280;11173;51.050;7.108;2023-05-09T15:33:45;98874.16;;;16.34;70.53
22018;BME280;11173;51.050;7.108;2023-05-09T15:43:45;98872.47;;;16.03;72.75
22018;BME280;11173;51.050;7.108;2023-05-09T15:53:45;98864.34;;;16.05;73.59
22018;BME280;11173;51.050;7.108;2023-05-09T16:03:45;98865.63;;;16.04;73.92
22018;BME280;11173;51.050;7.108;2023-05-09T16:13:46;98851.88;;;16.06;74.53
22018;BME280;11173;51.050;7.108;2023-05-09T16:23:46;98854.00;;;16.11;74.71
22018;BME280;11173;51.050;7.108;2023-05-09T16:33:46;98851.31;;;16.17;74.90
22018;BME280;11173;51.050;7.108;2023-05-09T16:43:47;98832.84;;;16.25;75.22
22018;BME280;11173;51.050;7.108;2023-05-09T16:53:47;98834.34;;;16.35;75.86
22018;BME280;11173;51.050;7.108;2023-05-09T17:03:47;98825.63;;;16.48;75.91
22018;BME280;11173;51.050;7.108;2023-05-09T17:13:48;98818.84;;;16.55;75.84
22018;BME280;11173;51.050;7.108;2023-05-09T17:23:48;98811.41;;;16.52;75.14
22018;BME280;11173;51.050;7.108;2023-05-09T17:33:48;98809.94;;;16.41;74.97
22018;BME280;11173;51.050;7.108;2023-05-09T17:43:49;98805.94;;;16.33;75.87
22018;BME280;11173;51.050;7.108;2023-05-09T17:53:50;98791.50;;;16.25;76.07
22018;BME280;11173;51.050;7.108;2023-05-09T18:03:51;98781.38;;;16.19;76.05
22018;BME280;11173;51.050;7.108;2023-05-09T18:13:52;98771.47;;;16.08;75.81
22018;BME280;11173;51.050;7.108;2023-05-09T18:23:52;98768.44;;;15.97;76.23
22018;BME280;11173;51.050;7.108;2023-05-09T18:33:53;98763.84;;;15.85;76.23
22018;BME280;11173;51.050;7.108;2023-05-09T18:43:53;98762.63;;;15.77;76.63
22018;BME280;11173;51.050;7.108;2023-05-09T18:53:55;98762.00;;;15.48;73.77
22018;BME280;11173;51.050;7.108;2023-05-09T19:03:55;98754.56;;;15.03;73.91
22018;BME280;11173;51.050;7.108;2023-05-09T19:13:56;98758.56;;;14.59;74.76
22018;BME280;11173;51.050;7.108;2023-05-09T19:23:56;98756.88;;;14.25;74.54
22018;BME280;11173;51.050;7.108;2023-05-09T19:33:56;98755.94;;;13.91;75.61
22018;BME280;11173;51.050;7.108;2023-05-09T19:43:57;98775.66;;;13.69;76.75
22018;BME280;11173;51.050;7.108;2023-05-09T19:53:58;98778.22;;;13.45;75.47
22018;BME280;11173;51.050;7.108;2023-05-09T20:03:58;98773.28;;;13.08;75.56
22018;BME280;11173;51.050;7.108;2023-05-09T20:13:59;98784.00;;;12.79;76.33
22018;BME280;11173;51.050;7.108;2023-05-09T20:23:59;98774.38;;;12.58;76.39
22018;BME280;11173;51.050;7.108;2023-05-09T20:34:00;98778.28;;;12.38;76.75
22018;BME280;11173;51.050;7.108;2023-05-09T20:44:00;98774.75;;;12.25;76.98
22018;BME280;11173;51.050;7.108;2023-05-09T20:54:03;98777.00;;;12.17;77.58
22018;BME280;11173;51.050;7.108;2023-05-09T21:04:03;98775.28;;;12.10;77.39
22018;BME280;11173;51.050;7.108;2023-05-09T21:14:06;98781.56;;;12.02;78.06
22018;BME280;11173;51.050;7.108;2023-05-09T21:24:06;98776.09;;;11.98;78.18
22018;BME280;11173;51.050;7.108;2023-05-09T21:34:08;98772.50;;;11.98;78.40
22018;BME280;11173;51.050;7.108;2023-05-09T21:44:11;98780.56;;;11.96;78.59
22018;BME280;11173;51.050;7.108;2023-05-09T21:54:11;98773.31;;;11.98;78.94
22018;BME280;11173;51.050;7.108;2023-05-09T22:04:12;98768.38;;;12.02;78.49
22018;BME280;11173;51.050;7.108;2023-05-09T22:14:12;98769.28;;;11.99;78.78
22018;BME280;11173;51.050;7.108;2023-05-09T22:24:12;98766.16;;;11.97;79.08
22018;BME280;11173;51.050;7.108;2023-05-09T22:34:13;98762.13;;;11.98;79.04
22018;BME280;11173;51.050;7.108;2023-05-09T22:44:13;98767.72;;;11.98;78.90
22018;BME280;11173;51.050;7.108;2023-05-09T22:54:13;98763.34;;;11.97;78.96
22018;BME280;11173;51.050;7.108;2023-05-09T23:04:14;98766.03;;;12.01;78.90
22018;BME280;11173;51.050;7.108;2023-05-09T23:14:14;98766.81;;;12.01;79.25
22018;BME280;11173;51.050;7.108;2023-05-09T23:24:14;98764.34;;;12.03;79.56
22018;BME280;11173;51.050;7.108;2023-05-09T23:34:14;98763.44;;;12.06;79.21
22018;BME280;11173;51.050;7.108;2023-05-09T23:44:15;98765.78;;;12.08;79.06
22018;BME280;11173;51.050;7.108;2023-05-09T23:54:15;98761.31;;;12.10;79.19
